sensor_id;sensor_type;location;lat;lon;timestamp;temperature;humidity
21759;DHT22;11041;50.854;20.580;2023-06-22T00:02:25;19.50;99.90
21759;DHT22;11041;50.854;20.580;2023-06-22T00:04:52;19.50;99.90
21759;DHT22;11041;50.854;20.580;2023-06-22T00:07:18;19.30;99.90
21759;DHT22;11041;50.854;20.580;2023-06-22T00:09:45;19.30;99.90
21759;DHT22;11041;50.854;20.580;2023-06-22T00:12:11;19.30;99.90
21759;DHT22;11041;50.854;20.580;2023-06-22T00:14:38;19.20;99.90
21759;DHT22;11041;50.854;20.580;2023-06-22T00:17:04;19.10;99.90
21759;DHT22;11041;50.854;20.580;2023-06-22T00:19:31;19.10;99.90
21759;DHT22;11041;50.854;20.580;2023-06-22T00:21:58;18.90;99.90
21759;DHT22;11041;50.854;20.580;2023-06-22T00:24:26;18.90;99.90
21759;DHT22;11041;50.854;20.580;2023-06-22T00:26:52;19.00;99.90
21759;DHT22;11041;50.854;20.580;2023-06-22T00:29:19;19.10;99.90
21759;DHT22;11041;50.854;20.580;2023-06-22T00:31:45;19.20;99.90
21759;DHT22;11041;50.854;20.580;2023-06-22T00:34:12;19.20;99.90
21759;DHT22;11041;50.854;20.580;2023-06-22T00:36:38;19.20;99.90
21759;DHT22;11041;50.854;20.580;2023-06-22T00:39:07;19.10;99.90
21759;DHT22;11041;50.854;20.580;2023-06-22T00:41:34;19.00;99.90
21759;DHT22;11041;50.854;20.580;2023-06-22T00:44:00;18.90;99.90
21759;DHT22;11041;50.854;20.580;2023-06-22T00:46:27;18.90;99.90
21759;DHT22;11041;50.854;20.580;2023-06-22T00:48:54;18.90;99.90
21759;DHT22;11041;50.854;20.580;2023-06-22T00:51:23;19.00;99.90
21759;DHT22;11041;50.854;20.580;2023-06-22T00:53:51;19.00;99.90
21759;DHT22;11041;50.854;20.580;2023-06-22T00:56:19;19.00;99.90
21759;DHT22;11041;50.854;20.580;2023-06-22T00:58:51;19.10;99.90
21759;DHT22;11041;50.854;20.580;2023-06-22T01:01:20;19.10;99.90
21759;DHT22;11041;50.854;20.580;2023-06-22T01:03:50;19.20;99.90
21759;DHT22;11041;50.854;20.580;2023-06-22T01:06:28;19.20;99.90
21759;DHT22;11041;50.854;20.580;2023-06-22T01:09:15;19.10;99.90
21759;DHT22;11041;50.854;20.580;2023-06-22T01:11:54;19.10;99.90
21759;DHT22;11041;50.854;20.580;2023-06-22T01:14:42;19.10;99.90
21759;DHT22;11041;50.854;20.580;2023-06-22T01:17:15;19.00;99.90
21759;DHT22;11041;50.854;20.580;2023-06-22T01:19:46;19.10;99.90
21759;DHT22;11041;50.854;20.580;2023-06-22T01:22:24;19.00;99.90
21759;DHT22;11041;50.854;20.580;2023-06-22T01:25:19;19.00;99.90
21759;DHT22;11041;50.854;20.580;2023-06-22T01:27:59;19.00;99.90
21759;DHT22;11041;50.854;20.580;2023-06-22T01:30:42;18.90;99.90
21759;DHT22;11041;50.854;20.580;2023-06-22T01:33:13;18.80;99.90
21759;DHT22;11041;50.854;20.580;2023-06-22T01:35:42;18.80;99.90
21759;DHT22;11041;50.854;20.580;2023-06-22T01:38:10;18.80;99.90
21759;DHT22;11041;50.854;20.580;2023-06-22T01:40:37;18.80;99.90
21759;DHT22;11041;50.854;20.580;2023-06-22T01:43:05;18.80;99.90
21759;DHT22;11041;50.854;20.580;2023-06-22T01:45:32;18.80;99.90
21759;DHT22;11041;50.854;20.580;2023-06-22T01:47:59;18.70;99.90
21759;DHT22;11041;50.854;20.580;2023-06-22T01:50:27;18.70;99.90
21759;DHT22;11041;50.854;20.580;2023-06-22T01:52:54;18.60;99.90
21759;DHT22;11041;50.854;20.580;2023-06-22T01:55:21;18.70;99.90
21759;DHT22;11041;50.854;20.580;2023-06-22T01:57:48;18.60;99.90
21759;DHT22;11041;50.854;20.580;2023-06-22T02:00:19;18.50;99.90
21759;DHT22;11041;50.854;20.580;2023-06-22T02:03:00;18.30;99.90
21759;DHT22;11041;50.854;20.580;2023-06-22T02:05:36;18.40;99.90
21759;DHT22;11041;50.854;20.580;2023-06-22T02:08:24;18.40;99.90
21759;DHT22;11041;50.854;20.580;2023-06-22T02:10:55;18.30;99.90
21759;DHT22;11041;50.854;20.580;2023-06-22T02:13:24;18.40;99.90
21759;DHT22;11041;50.854;20.580;2023-06-22T02:15:53;18.30;99.90
21759;DHT22;11041;50.854;20.580;2023-06-22T02:18:20;18.30;99.90
21759;DHT22;11041;50.854;20.580;2023-06-22T02:20:47;18.30;99.90
21759;DHT22;11041;50.854;20.580;2023-06-22T02:23:13;18.40;99.90
21759;DHT22;11041;50.854;20.580;2023-06-22T02:25:40;18.40;99.90
21759;DHT22;11041;50.854;20.580;2023-06-22T02:28:10;18.40;99.90
21759;DHT22;11041;50.854;20.580;2023-06-22T02:30:37;18.40;99.90
21759;DHT22;11041;50.854;20.580;2023-06-22T02:33:04;18.40;99.90
21759;DHT22;11041;50.854;20.580;2023-06-22T02:35:31;18.40;99.90
21759;DHT22;11041;50.854;20.580;2023-06-22T02:38:01;18.30;99.90
21759;DHT22;11041;50.854;20.580;2023-06-22T02:40:29;18.30;99.90
21759;DHT22;11041;50.854;20.580;2023-06-22T02:42:56;18.40;99.90
21759;DHT22;11041;50.854;20.580;2023-06-22T02:45:27;18.40;99.90
21759;DHT22;11041;50.854;20.580;2023-06-22T02:47:55;18.40;99.90
21759;DHT22;11041;50.854;20.580;2023-06-22T02:50:22;18.40;99.90
21759;DHT22;11041;50.854;20.580;2023-06-22T02:52:49;18.30;99.90
21759;DHT22;11041;50.854;20.580;2023-06-22T02:55:16;18.30;99.90
21759;DHT22;11041;50.854;20.580;2023-06-22T02:57:42;18.40;99.90
21759;DHT22;11041;50.854;20.580;2023-06-22T03:00:14;18.40;99.90
21759;DHT22;11041;50.854;20.580;2023-06-22T03:02:48;18.40;99.90
21759;DHT22;11041;50.854;20.580;2023-06-22T03:05:16;18.50;99.90
21759;DHT22;11041;50.854;20.580;2023-06-22T03:07:44;18.50;99.90
21759;DHT22;11041;50.854;20.580;2023-06-22T03:10:12;18.50;99.90
21759;DHT22;11041;50.854;20.580;2023-06-22T03:12:40;18.50;99.90
21759;DHT22;11041;50.854;20.580;2023-06-22T03:15:10;18.40;99.90
21759;DHT22;11041;50.854;20.580;2023-06-22T03:17:39;18.50;99.90
21759;DHT22;11041;50.854;20.580;2023-06-22T03:20:08;18.40;99.90
21759;DHT22;11041;50.854;20.580;2023-06-22T03:22:38;18.40;99.90
21759;DHT22;11041;50.854;20.580;2023-06-22T03:25:07;18.50;99.90
21759;DHT22;11041;50.854;20.580;2023-06-22T03:27:42;18.50;99.90
21759;DHT22;11041;50.854;20.580;2023-06-22T03:30:11;18.50;99.90
21759;DHT22;11041;50.854;20.580;2023-06-22T03:32:38;18.50;99.90
21759;DHT22;11041;50.854;20.580;2023-06-22T03:35:05;18.50;99.90
21759;DHT22;11041;50.854;20.580;2023-06-22T03:37:32;18.60;99.90
21759;DHT22;11041;50.854;20.580;2023-06-22T03:39:58;18.60;99.90
21759;DHT22;11041;50.854;20.580;2023-06-22T03:42:26;18.60;99.90
21759;DHT22;11041;50.854;20.580;2023-06-22T03:44:53;18.70;99.90
21759;DHT22;11041;50.854;20.580;2023-06-22T03:47:19;18.70;99.90
21759;DHT22;11041;50.854;20.580;2023-06-22T03:49:46;18.40;99.90
21759;DHT22;11041;50.854;20.580;2023-06-22T03:52:12;18.50;99.90
21759;DHT22;11041;50.854;20.580;2023-06-22T03:54:39;18.50;99.90
21759;DHT22;11041;50.854;20.580;2023-06-22T03:57:05;18.60;99.90
21759;DHT22;11041;50.854;20.580;2023-06-22T03:59:32;18.60;99.90
21759;DHT22;11041;50.854;20.580;2023-06-22T04:01:58;18.60;99.90
21759;DHT22;11041;50.854;20.580;2023-06-22T04:04:25;18.50;99.90
21759;DHT22;11041;50.854;20.580;2023-06-22T04:06:52;18.50;99.90
21759;DHT22;11041;50.854;20.580;2023-06-22T04:09:18;18.60;99.90
21759;DHT22;11041;50.854;20.580;2023-06-22T04:11:45;18.60;99.90
21759;DHT22;11041;50.854;20.580;2023-06-22T04:14:11;18.70;99.90
21759;DHT22;11041;50.854;20.580;2023-06-22T04:16:38;18.70;99.90
21759;DHT22;11041;50.854;20.580;2023-06-22T04:19:04;18.90;99.90
21759;DHT22;11041;50.854;20.580;2023-06-22T04:21:31;18.90;99.90
21759;DHT22;11041;50.854;20.580;2023-06-22T04:23:57;19.00;99.90
21759;DHT22;11041;50.854;20.580;2023-06-22T04:26:24;19.00;99.90
21759;DHT22;11041;50.854;20.580;2023-06-22T04:28:50;19.10;99.90
21759;DHT22;11041;50.854;20.580;2023-06-22T04:31:21;19.20;99.90
21759;DHT22;11041;50.854;20.580;2023-06-22T04:33:59;19.30;99.90
21759;DHT22;11041;50.854;20.580;2023-06-22T04:36:37;19.40;99.90
21759;DHT22;11041;50.854;20.580;2023-06-22T04:39:08;19.50;99.90
21759;DHT22;11041;50.854;20.580;2023-06-22T04:41:39;19.60;99.90
21759;DHT22;11041;50.854;20.580;2023-06-22T04:44:19;19.60;99.90
21759;DHT22;11041;50.854;20.580;2023-06-22T04:47:00;19.70;99.90
21759;DHT22;11041;50.854;20.580;2023-06-22T04:49:30;19.80;99.90
21759;DHT22;11041;50.854;20.580;2023-06-22T04:52:03;19.90;99.90
21759;DHT22;11041;50.854;20.580;2023-06-22T04:54:32;19.90;99.90
21759;DHT22;11041;50.854;20.580;2023-06-22T04:57:01;19.70;99.90
21759;DHT22;11041;50.854;20.580;2023-06-22T04:59:30;19.70;99.90
21759;DHT22;11041;50.854;20.580;2023-06-22T05:01:59;19.80;99.90
21759;DHT22;11041;50.854;20.580;2023-06-22T05:04:28;19.80;99.90
21759;DHT22;11041;50.854;20.580;2023-06-22T05:06:59;19.90;99.90
21759;DHT22;11041;50.854;20.580;2023-06-22T05:09:26;19.90;99.90
21759;DHT22;11041;50.854;20.580;2023-06-22T05:11:53;19.90;99.90
21759;DHT22;11041;50.854;20.580;2023-06-22T05:14:20;20.10;99.90
21759;DHT22;11041;50.854;20.580;2023-06-22T05:16:48;20.20;99.90
21759;DHT22;11041;50.854;20.580;2023-06-22T05:19:16;20.20;99.90
21759;DHT22;11041;50.854;20.580;2023-06-22T05:21:44;20.20;99.90
21759;DHT22;11041;50.854;20.580;2023-06-22T05:24:10;20.00;99.90
21759;DHT22;11041;50.854;20.580;2023-06-22T05:26:37;20.00;99.90
21759;DHT22;11041;50.854;20.580;2023-06-22T05:29:04;20.10;99.90
21759;DHT22;11041;50.854;20.580;2023-06-22T05:31:31;20.00;99.90
21759;DHT22;11041;50.854;20.580;2023-06-22T05:33:57;19.90;99.90
21759;DHT22;11041;50.854;20.580;2023-06-22T05:36:24;19.90;99.90
21759;DHT22;11041;50.854;20.580;2023-06-22T05:38:52;20.00;99.90
21759;DHT22;11041;50.854;20.580;2023-06-22T05:41:19;20.20;99.90
21759;DHT22;11041;50.854;20.580;2023-06-22T05:43:46;20.10;99.90
21759;DHT22;11041;50.854;20.580;2023-06-22T05:46:13;20.10;99.90
21759;DHT22;11041;50.854;20.580;2023-06-22T05:48:39;20.10;99.90
21759;DHT22;11041;50.854;20.580;2023-06-22T05:51:06;20.20;99.90
21759;DHT22;11041;50.854;20.580;2023-06-22T05:53:32;20.10;99.90
21759;DHT22;11041;50.854;20.580;2023-06-22T05:55:59;20.10;99.90
21759;DHT22;11041;50.854;20.580;2023-06-22T05:58:25;20.30;99.90
21759;DHT22;11041;50.854;20.580;2023-06-22T06:00:52;20.40;99.90
21759;DHT22;11041;50.854;20.580;2023-06-22T06:03:18;20.30;99.90
21759;DHT22;11041;50.854;20.580;2023-06-22T06:05:45;20.40;99.90
21759;DHT22;11041;50.854;20.580;2023-06-22T06:08:12;20.50;99.90
21759;DHT22;11041;50.854;20.580;2023-06-22T06:10:38;20.70;99.90
21759;DHT22;11041;50.854;20.580;2023-06-22T06:13:05;20.60;99.90
21759;DHT22;11041;50.854;20.580;2023-06-22T06:15:33;20.60;99.90
21759;DHT22;11041;50.854;20.580;2023-06-22T06:18:00;20.80;99.90
21759;DHT22;11041;50.854;20.580;2023-06-22T06:20:31;20.70;99.90
21759;DHT22;11041;50.854;20.580;2023-06-22T06:22:57;20.90;99.90
21759;DHT22;11041;50.854;20.580;2023-06-22T06:25:24;21.10;99.90
21759;DHT22;11041;50.854;20.580;2023-06-22T06:27:52;21.10;99.90
21759;DHT22;11041;50.854;20.580;2023-06-22T06:30:20;21.10;99.90
21759;DHT22;11041;50.854;20.580;2023-06-22T06:32:48;21.20;99.90
21759;DHT22;11041;50.854;20.580;2023-06-22T06:35:16;21.40;99.90
21759;DHT22;11041;50.854;20.580;2023-06-22T06:37:45;21.30;99.90
21759;DHT22;11041;50.854;20.580;2023-06-22T06:40:13;21.30;99.90
21759;DHT22;11041;50.854;20.580;2023-06-22T06:42:42;21.30;99.90
21759;DHT22;11041;50.854;20.580;2023-06-22T06:45:12;21.20;99.90
21759;DHT22;11041;50.854;20.580;2023-06-22T06:47:42;21.30;99.90
21759;DHT22;11041;50.854;20.580;2023-06-22T06:50:10;21.40;99.90
21759;DHT22;11041;50.854;20.580;2023-06-22T06:52:37;21.50;99.90
21759;DHT22;11041;50.854;20.580;2023-06-22T06:55:04;21.40;99.90
21759;DHT22;11041;50.854;20.580;2023-06-22T06:57:38;21.60;99.90
21759;DHT22;11041;50.854;20.580;2023-06-22T07:00:08;21.80;99.90
21759;DHT22;11041;50.854;20.580;2023-06-22T07:02:41;21.70;99.90
21759;DHT22;11041;50.854;20.580;2023-06-22T07:05:12;21.90;99.90
21759;DHT22;11041;50.854;20.580;2023-06-22T07:07:39;22.10;99.90
21759;DHT22;11041;50.854;20.580;2023-06-22T07:10:08;22.10;99.90
21759;DHT22;11041;50.854;20.580;2023-06-22T07:12:36;22.10;99.90
21759;DHT22;11041;50.854;20.580;2023-06-22T07:15:08;22.10;99.90
21759;DHT22;11041;50.854;20.580;2023-06-22T07:17:37;22.00;99.90
21759;DHT22;11041;50.854;20.580;2023-06-22T07:20:07;22.10;99.90
21759;DHT22;11041;50.854;20.580;2023-06-22T07:22:42;22.00;99.90
21759;DHT22;11041;50.854;20.580;2023-06-22T07:25:13;21.90;99.90
21759;DHT22;11041;50.854;20.580;2023-06-22T07:27:46;21.90;99.90
21759;DHT22;11041;50.854;20.580;2023-06-22T07:30:23;21.90;99.90
21759;DHT22;11041;50.854;20.580;2023-06-22T07:32:50;22.00;99.90
21759;DHT22;11041;50.854;20.580;2023-06-22T07:35:17;22.10;99.90
21759;DHT22;11041;50.854;20.580;2023-06-22T07:37:43;22.20;99.90
21759;DHT22;11041;50.854;20.580;2023-06-22T07:40:10;22.30;99.90
21759;DHT22;11041;50.854;20.580;2023-06-22T07:42:37;22.30;99.90
21759;DHT22;11041;50.854;20.580;2023-06-22T07:45:04;22.40;99.90
21759;DHT22;11041;50.854;20.580;2023-06-22T07:47:34;22.50;99.90
21759;DHT22;11041;50.854;20.580;2023-06-22T07:50:04;22.50;99.90
21759;DHT22;11041;50.854;20.580;2023-06-22T07:52:32;22.60;99.90
21759;DHT22;11041;50.854;20.580;2023-06-22T07:54:58;22.70;99.90
21759;DHT22;11041;50.854;20.580;2023-06-22T07:57:25;22.70;99.90
21759;DHT22;11041;50.854;20.580;2023-06-22T08:00:02;22.80;99.90
21759;DHT22;11041;50.854;20.580;2023-06-22T08:02:42;23.10;99.90
21759;DHT22;11041;50.854;20.580;2023-06-22T08:05:10;23.10;99.90
21759;DHT22;11041;50.854;20.580;2023-06-22T08:07:38;23.00;99.90
21759;DHT22;11041;50.854;20.580;2023-06-22T08:10:05;23.10;99.90
21759;DHT22;11041;50.854;20.580;2023-06-22T08:12:32;23.20;99.90
21759;DHT22;11041;50.854;20.580;2023-06-22T08:14:59;23.20;99.90
21759;DHT22;11041;50.854;20.580;2023-06-22T08:17:26;23.40;99.90
21759;DHT22;11041;50.854;20.580;2023-06-22T08:19:52;23.40;99.90
21759;DHT22;11041;50.854;20.580;2023-06-22T08:22:19;23.50;99.90
21759;DHT22;11041;50.854;20.580;2023-06-22T08:24:45;23.70;99.90
21759;DHT22;11041;50.854;20.580;2023-06-22T08:27:12;23.80;99.90
21759;DHT22;11041;50.854;20.580;2023-06-22T08:29:40;23.80;99.90
21759;DHT22;11041;50.854;20.580;2023-06-22T08:32:12;24.00;99.90
21759;DHT22;11041;50.854;20.580;2023-06-22T08:34:38;24.10;99.90
21759;DHT22;11041;50.854;20.580;2023-06-22T08:37:08;24.00;99.90
21759;DHT22;11041;50.854;20.580;2023-06-22T08:39:35;24.10;99.90
21759;DHT22;11041;50.854;20.580;2023-06-22T08:42:02;24.20;99.90
21759;DHT22;11041;50.854;20.580;2023-06-22T08:44:29;24.20;99.90
21759;DHT22;11041;50.854;20.580;2023-06-22T08:46:55;24.30;99.90
21759;DHT22;11041;50.854;20.580;2023-06-22T08:49:22;24.30;99.90
21759;DHT22;11041;50.854;20.580;2023-06-22T08:51:48;24.20;99.90
21759;DHT22;11041;50.854;20.580;2023-06-22T08:54:15;24.30;99.90
21759;DHT22;11041;50.854;20.580;2023-06-22T08:56:42;24.30;99.90
21759;DHT22;11041;50.854;20.580;2023-06-22T08:59:10;24.40;99.90
21759;DHT22;11041;50.854;20.580;2023-06-22T09:01:37;24.40;99.90
21759;DHT22;11041;50.854;20.580;2023-06-22T09:04:03;24.40;99.90
21759;DHT22;11041;50.854;20.580;2023-06-22T09:06:32;24.50;99.90
21759;DHT22;11041;50.854;20.580;2023-06-22T09:08:59;24.60;99.90
21759;DHT22;11041;50.854;20.580;2023-06-22T09:11:26;24.70;99.90
21759;DHT22;11041;50.854;20.580;2023-06-22T09:13:53;24.70;99.90
21759;DHT22;11041;50.854;20.580;2023-06-22T09:16:19;24.60;99.90
21759;DHT22;11041;50.854;20.580;2023-06-22T09:18:49;24.70;99.90
21759;DHT22;11041;50.854;20.580;2023-06-22T09:21:16;24.60;99.90
21759;DHT22;11041;50.854;20.580;2023-06-22T09:23:43;24.70;99.90
21759;DHT22;11041;50.854;20.580;2023-06-22T09:26:09;24.80;99.90
21759;DHT22;11041;50.854;20.580;2023-06-22T09:28:36;24.90;99.90
21759;DHT22;11041;50.854;20.580;2023-06-22T09:31:02;24.90;99.90
21759;DHT22;11041;50.854;20.580;2023-06-22T09:33:29;24.90;99.90
21759;DHT22;11041;50.854;20.580;2023-06-22T09:35:55;25.10;99.90
21759;DHT22;11041;50.854;20.580;2023-06-22T09:38:22;25.00;99.90
21759;DHT22;11041;50.854;20.580;2023-06-22T09:40:49;25.00;99.90
21759;DHT22;11041;50.854;20.580;2023-06-22T09:43:16;25.10;99.90
21759;DHT22;11041;50.854;20.580;2023-06-22T09:45:43;25.00;99.90
21759;DHT22;11041;50.854;20.580;2023-06-22T09:48:09;25.30;99.90
21759;DHT22;11041;50.854;20.580;2023-06-22T09:50:36;25.30;99.90
21759;DHT22;11041;50.854;20.580;2023-06-22T09:53:03;25.40;99.90
21759;DHT22;11041;50.854;20.580;2023-06-22T09:55:29;25.40;99.90
21759;DHT22;11041;50.854;20.580;2023-06-22T09:57:56;25.40;99.90
21759;DHT22;11041;50.854;20.580;2023-06-22T10:00:26;25.50;99.90
21759;DHT22;11041;50.854;20.580;2023-06-22T10:02:57;25.50;99.90
21759;DHT22;11041;50.854;20.580;2023-06-22T10:05:25;25.50;99.90
21759;DHT22;11041;50.854;20.580;2023-06-22T10:08:02;25.50;99.90
21759;DHT22;11041;50.854;20.580;2023-06-22T10:10:36;25.40;99.90
21759;DHT22;11041;50.854;20.580;2023-06-22T10:13:13;25.40;99.90
21759;DHT22;11041;50.854;20.580;2023-06-22T10:15:42;25.40;99.90
21759;DHT22;11041;50.854;20.580;2023-06-22T10:18:08;25.50;99.90
21759;DHT22;11041;50.854;20.580;2023-06-22T10:20:35;25.60;99.90
21759;DHT22;11041;50.854;20.580;2023-06-22T10:23:02;25.70;99.90
21759;DHT22;11041;50.854;20.580;2023-06-22T10:25:28;25.70;99.90
21759;DHT22;11041;50.854;20.580;2023-06-22T10:27:54;25.80;99.90
21759;DHT22;11041;50.854;20.580;2023-06-22T10:30:21;25.80;99.90
21759;DHT22;11041;50.854;20.580;2023-06-22T10:32:47;25.80;99.90
21759;DHT22;11041;50.854;20.580;2023-06-22T10:35:13;25.80;99.90
21759;DHT22;11041;50.854;20.580;2023-06-22T10:37:45;25.80;99.90
21759;DHT22;11041;50.854;20.580;2023-06-22T10:40:13;26.00;99.90
21759;DHT22;11041;50.854;20.580;2023-06-22T10:42:41;26.00;99.90
21759;DHT22;11041;50.854;20.580;2023-06-22T10:45:08;25.90;99.90
21759;DHT22;11041;50.854;20.580;2023-06-22T10:47:36;25.90;99.90
21759;DHT22;11041;50.854;20.580;2023-06-22T10:50:02;25.90;99.90
21759;DHT22;11041;50.854;20.580;2023-06-22T10:52:30;25.90;99.90
21759;DHT22;11041;50.854;20.580;2023-06-22T10:54:56;26.00;99.90
21759;DHT22;11041;50.854;20.580;2023-06-22T10:57:23;26.20;99.90
21759;DHT22;11041;50.854;20.580;2023-06-22T10:59:50;26.40;99.90
21759;DHT22;11041;50.854;20.580;2023-06-22T11:02:16;26.50;99.90
21759;DHT22;11041;50.854;20.580;2023-06-22T11:04:42;26.40;99.90
21759;DHT22;11041;50.854;20.580;2023-06-22T11:07:09;26.50;99.90
21759;DHT22;11041;50.854;20.580;2023-06-22T11:09:36;26.50;99.90
21759;DHT22;11041;50.854;20.580;2023-06-22T11:12:04;26.70;99.90
21759;DHT22;11041;50.854;20.580;2023-06-22T11:14:31;26.60;99.90
21759;DHT22;11041;50.854;20.580;2023-06-22T11:16:59;26.20;99.90
21759;DHT22;11041;50.854;20.580;2023-06-22T11:19:26;26.20;99.90
21759;DHT22;11041;50.854;20.580;2023-06-22T11:21:53;26.50;99.90
21759;DHT22;11041;50.854;20.580;2023-06-22T11:24:19;26.50;99.90
21759;DHT22;11041;50.854;20.580;2023-06-22T11:26:46;26.60;99.90
21759;DHT22;11041;50.854;20.580;2023-06-22T11:29:12;26.40;99.90
21759;DHT22;11041;50.854;20.580;2023-06-22T11:31:39;26.50;99.90
21759;DHT22;11041;50.854;20.580;2023-06-22T11:34:05;26.50;99.90
21759;DHT22;11041;50.854;20.580;2023-06-22T11:36:31;26.80;99.90
21759;DHT22;11041;50.854;20.580;2023-06-22T11:38:59;27.20;99.90
21759;DHT22;11041;50.854;20.580;2023-06-22T11:41:26;27.20;99.90
21759;DHT22;11041;50.854;20.580;2023-06-22T11:43:52;27.30;99.90
21759;DHT22;11041;50.854;20.580;2023-06-22T11:46:18;27.00;99.90
21759;DHT22;11041;50.854;20.580;2023-06-22T11:48:45;27.00;99.90
21759;DHT22;11041;50.854;20.580;2023-06-22T11:51:11;27.30;99.90
21759;DHT22;11041;50.854;20.580;2023-06-22T11:53:38;27.40;99.90
21759;DHT22;11041;50.854;20.580;2023-06-22T11:56:04;27.80;99.90
21759;DHT22;11041;50.854;20.580;2023-06-22T11:58:33;28.10;99.90
21759;DHT22;11041;50.854;20.580;2023-06-22T12:01:00;27.80;99.90
21759;DHT22;11041;50.854;20.580;2023-06-22T12:03:27;27.60;99.90
21759;DHT22;11041;50.854;20.580;2023-06-22T12:05:59;27.90;99.90
21759;DHT22;11041;50.854;20.580;2023-06-22T12:08:26;28.10;99.90
21759;DHT22;11041;50.854;20.580;2023-06-22T12:10:53;28.50;99.90
21759;DHT22;11041;50.854;20.580;2023-06-22T12:13:20;28.30;99.90
21759;DHT22;11041;50.854;20.580;2023-06-22T12:15:47;28.40;99.90
21759;DHT22;11041;50.854;20.580;2023-06-22T12:18:14;27.70;99.90
21759;DHT22;11041;50.854;20.580;2023-06-22T12:20:41;27.70;99.90
21759;DHT22;11041;50.854;20.580;2023-06-22T12:23:12;27.90;99.90
21759;DHT22;11041;50.854;20.580;2023-06-22T12:25:48;28.00;99.90
21759;DHT22;11041;50.854;20.580;2023-06-22T12:28:14;28.30;99.90
21759;DHT22;11041;50.854;20.580;2023-06-22T12:30:41;28.70;99.90
21759;DHT22;11041;50.854;20.580;2023-06-22T12:33:08;29.10;99.90
21759;DHT22;11041;50.854;20.580;2023-06-22T12:35:35;28.70;99.90
21759;DHT22;11041;50.854;20.580;2023-06-22T12:38:01;28.00;99.90
21759;DHT22;11041;50.854;20.580;2023-06-22T12:40:29;28.20;99.90
21759;DHT22;11041;50.854;20.580;2023-06-22T12:42:55;28.20;99.90
21759;DHT22;11041;50.854;20.580;2023-06-22T12:45:22;28.80;99.90
21759;DHT22;11041;50.854;20.580;2023-06-22T12:47:49;29.30;99.90
21759;DHT22;11041;50.854;20.580;2023-06-22T12:50:16;29.60;99.90
21759;DHT22;11041;50.854;20.580;2023-06-22T12:52:42;29.50;99.60
21759;DHT22;11041;50.854;20.580;2023-06-22T12:55:09;29.40;99.90
21759;DHT22;11041;50.854;20.580;2023-06-22T12:57:36;29.50;99.90
21759;DHT22;11041;50.854;20.580;2023-06-22T13:00:03;29.10;99.90
21759;DHT22;11041;50.854;20.580;2023-06-22T13:02:31;28.80;99.90
21759;DHT22;11041;50.854;20.580;2023-06-22T13:04:57;28.70;99.90
21759;DHT22;11041;50.854;20.580;2023-06-22T13:07:24;29.00;99.90
21759;DHT22;11041;50.854;20.580;2023-06-22T13:09:51;29.80;99.90
21759;DHT22;11041;50.854;20.580;2023-06-22T13:12:17;29.80;99.90
21759;DHT22;11041;50.854;20.580;2023-06-22T13:14:46;29.90;99.90
21759;DHT22;11041;50.854;20.580;2023-06-22T13:17:13;30.60;98.90
21759;DHT22;11041;50.854;20.580;2023-06-22T13:19:40;30.60;98.80
21759;DHT22;11041;50.854;20.580;2023-06-22T13:22:32;29.40;99.90
21759;DHT22;11041;50.854;20.580;2023-06-22T13:25:06;29.00;99.90
21759;DHT22;11041;50.854;20.580;2023-06-22T13:27:33;29.10;99.90
21759;DHT22;11041;50.854;20.580;2023-06-22T13:30:00;29.50;99.90
21759;DHT22;11041;50.854;20.580;2023-06-22T13:32:28;29.30;99.90
21759;DHT22;11041;50.854;20.580;2023-06-22T13:34:55;30.60;99.60
21759;DHT22;11041;50.854;20.580;2023-06-22T13:37:21;31.10;97.60
21759;DHT22;11041;50.854;20.580;2023-06-22T13:39:48;30.70;97.10
21759;DHT22;11041;50.854;20.580;2023-06-22T13:42:14;30.50;97.10
21759;DHT22;11041;50.854;20.580;2023-06-22T13:44:41;30.00;97.80
21759;DHT22;11041;50.854;20.580;2023-06-22T13:47:08;29.30;97.90
21759;DHT22;11041;50.854;20.580;2023-06-22T13:49:35;30.40;97.60
21759;DHT22;11041;50.854;20.580;2023-06-22T13:52:01;31.40;95.50
21759;DHT22;11041;50.854;20.580;2023-06-22T13:54:30;32.00;95.20
21759;DHT22;11041;50.854;20.580;2023-06-22T13:56:57;32.80;91.60
21759;DHT22;11041;50.854;20.580;2023-06-22T13:59:23;32.60;91.60
21759;DHT22;11041;50.854;20.580;2023-06-22T14:01:52;30.80;92.60
21759;DHT22;11041;50.854;20.580;2023-06-22T14:04:18;31.30;93.50
21759;DHT22;11041;50.854;20.580;2023-06-22T14:06:45;31.20;92.10
21759;DHT22;11041;50.854;20.580;2023-06-22T14:09:12;31.00;92.30
21759;DHT22;11041;50.854;20.580;2023-06-22T14:11:38;30.90;92.70
21759;DHT22;11041;50.854;20.580;2023-06-22T14:14:05;30.70;91.80
21759;DHT22;11041;50.854;20.580;2023-06-22T14:16:32;30.50;92.00
21759;DHT22;11041;50.854;20.580;2023-06-22T14:18:59;31.70;90.60
21759;DHT22;11041;50.854;20.580;2023-06-22T14:21:26;31.10;90.40
21759;DHT22;11041;50.854;20.580;2023-06-22T14:23:53;30.20;91.00
21759;DHT22;11041;50.854;20.580;2023-06-22T14:26:19;30.10;91.10
21759;DHT22;11041;50.854;20.580;2023-06-22T14:28:48;31.20;90.60
21759;DHT22;11041;50.854;20.580;2023-06-22T14:31:17;30.50;91.00
21759;DHT22;11041;50.854;20.580;2023-06-22T14:33:46;30.50;90.50
21759;DHT22;11041;50.854;20.580;2023-06-22T14:36:15;31.70;88.60
21759;DHT22;11041;50.854;20.580;2023-06-22T14:38:43;31.40;89.40
21759;DHT22;11041;50.854;20.580;2023-06-22T14:41:10;30.30;90.30
21759;DHT22;11041;50.854;20.580;2023-06-22T14:43:37;30.90;91.10
21759;DHT22;11041;50.854;20.580;2023-06-22T14:46:03;30.90;90.30
21759;DHT22;11041;50.854;20.580;2023-06-22T14:48:30;31.30;89.20
21759;DHT22;11041;50.854;20.580;2023-06-22T14:50:57;31.00;89.60
21759;DHT22;11041;50.854;20.580;2023-06-22T14:53:30;30.80;90.00
21759;DHT22;11041;50.854;20.580;2023-06-22T14:55:56;30.50;90.40
21759;DHT22;11041;50.854;20.580;2023-06-22T14:58:23;31.30;89.30
21759;DHT22;11041;50.854;20.580;2023-06-22T15:00:51;31.10;87.80
21759;DHT22;11041;50.854;20.580;2023-06-22T15:03:17;31.20;88.20
21759;DHT22;11041;50.854;20.580;2023-06-22T15:05:47;31.00;90.00
21759;DHT22;11041;50.854;20.580;2023-06-22T15:08:17;30.30;90.40
21759;DHT22;11041;50.854;20.580;2023-06-22T15:10:46;30.30;91.60
21759;DHT22;11041;50.854;20.580;2023-06-22T15:13:13;30.50;90.60
21759;DHT22;11041;50.854;20.580;2023-06-22T15:15:40;30.80;90.00
21759;DHT22;11041;50.854;20.580;2023-06-22T15:18:07;30.60;89.60
21759;DHT22;11041;50.854;20.580;2023-06-22T15:20:33;30.50;89.60
21759;DHT22;11041;50.854;20.580;2023-06-22T15:23:00;30.30;90.00